Brookfield, Wisconsin
Current Conditions -  °F | °C
As of 8:55 PM on Thursday 27 Nov 2014 (Local Time) from KUES Reporting Station
Clear Clear  
Wind Chill: -12°   Ceiling: Unl
Heat Index: -12°   Visibility: 10mi
Dew Point: -15°   Wind: 3mph
Humidity: 79%   Direction: 270°W
Pressure: 30.38"   Gusts: NA
Location:  43.06°N, 88.13°W
Report Text: KUES 280255Z AUTO 27003KT 10SM CLR M12/M15 A3038 RMK AO2
Loading
Personal Weather Stations






























Interactive Weather Map New forecast layout! Learn more

10-Day Weather Forecast

Advertisements
Track Severe Weather on mobile